Terminal Aerodrome Forecast
Issued by NWS Albany, NY

Home | Current Version | Previous Version | Text Only | Print | Product List | Glossary On
Versions: 1 2 3 4 5 6 7 8 9 10 11 12 13 14 15 16 17
568
FTUS41 KALY 241130
TAFALB
TAF
KALB 241130Z 2412/2512 00000KT P6SM VCSH FEW060 BKN120
      TEMPO 2412/2414 4SM -SHRA OVC035
     FM241600 06005KT P6SM VCSH SCT040 BKN060
     FM250200 VRB03KT P6SM SCT090=

USA.gov is the U.S. government's official web portal to all federal, state and local government web resources and services.